sensor_id;sensor_type;location;lat;lon;timestamp;P1;durP1;ratioP1;P2;durP2;ratioP2
48401;SDS011;65988;52.422;16.746;2023-04-25T00:02:16;0.30;;;0.30;;
48401;SDS011;65988;52.422;16.746;2023-04-25T00:04:50;0.20;;;0.20;;
48401;SDS011;65988;52.422;16.746;2023-04-25T00:07:32;0.20;;;0.20;;
48401;SDS011;65988;52.422;16.746;2023-04-25T00:10:09;0.20;;;0.20;;
48401;SDS011;65988;52.422;16.746;2023-04-25T00:12:53;0.20;;;0.20;;
48401;SDS011;65988;52.422;16.746;2023-04-25T00:15:36;0.20;;;0.20;;
48401;SDS011;65988;52.422;16.746;2023-04-25T00:18:11;0.30;;;0.30;;
48401;SDS011;65988;52.422;16.746;2023-04-25T00:20:39;0.20;;;0.20;;
48401;SDS011;65988;52.422;16.746;2023-04-25T00:23:16;0.20;;;0.20;;
48401;SDS011;65988;52.422;16.746;2023-04-25T00:26:00;0.30;;;0.30;;
48401;SDS011;65988;52.422;16.746;2023-04-25T00:31:14;0.13;;;0.13;;
48401;SDS011;65988;52.422;16.746;2023-04-25T00:33:50;0.20;;;0.20;;
48401;SDS011;65988;52.422;16.746;2023-04-25T00:36:19;0.25;;;0.25;;
48401;SDS011;65988;52.422;16.746;2023-04-25T00:38:47;0.17;;;0.17;;
48401;SDS011;65988;52.422;16.746;2023-04-25T00:43:51;0.30;;;0.30;;
48401;SDS011;65988;52.422;16.746;2023-04-25T00:46:21;0.10;;;0.10;;
48401;SDS011;65988;52.422;16.746;2023-04-25T00:48:53;0.10;;;0.10;;
48401;SDS011;65988;52.422;16.746;2023-04-25T00:51:20;0.20;;;0.20;;
48401;SDS011;65988;52.422;16.746;2023-04-25T00:54:03;0.20;;;0.20;;
48401;SDS011;65988;52.422;16.746;2023-04-25T00:56:31;0.30;;;0.30;;
48401;SDS011;65988;52.422;16.746;2023-04-25T00:59:02;0.20;;;0.20;;
48401;SDS011;65988;52.422;16.746;2023-04-25T01:01:31;0.20;;;0.20;;
48401;SDS011;65988;52.422;16.746;2023-04-25T01:04:19;0.20;;;0.20;;
48401;SDS011;65988;52.422;16.746;2023-04-25T01:06:58;0.20;;;0.20;;
48401;SDS011;65988;52.422;16.746;2023-04-25T01:09:26;0.20;;;0.20;;
48401;SDS011;65988;52.422;16.746;2023-04-25T01:12:00;0.20;;;0.20;;
48401;SDS011;65988;52.422;16.746;2023-04-25T01:14:26;0.20;;;0.20;;
48401;SDS011;65988;52.422;16.746;2023-04-25T01:16:57;0.30;;;0.30;;
48401;SDS011;65988;52.422;16.746;2023-04-25T01:19:35;0.20;;;0.20;;
48401;SDS011;65988;52.422;16.746;2023-04-25T01:22:13;0.20;;;0.20;;
48401;SDS011;65988;52.422;16.746;2023-04-25T01:24:40;0.28;;;0.28;;
48401;SDS011;65988;52.422;16.746;2023-04-25T01:27:19;0.25;;;0.25;;
48401;SDS011;65988;52.422;16.746;2023-04-25T01:29:48;0.20;;;0.20;;
48401;SDS011;65988;52.422;16.746;2023-04-25T01:34:54;0.30;;;0.30;;
48401;SDS011;65988;52.422;16.746;2023-04-25T01:37:19;0.30;;;0.30;;
48401;SDS011;65988;52.422;16.746;2023-04-25T01:39:48;0.20;;;0.20;;
48401;SDS011;65988;52.422;16.746;2023-04-25T01:42:18;0.22;;;0.22;;
48401;SDS011;65988;52.422;16.746;2023-04-25T01:44:49;0.30;;;0.30;;
48401;SDS011;65988;52.422;16.746;2023-04-25T01:47:21;0.20;;;0.20;;
48401;SDS011;65988;52.422;16.746;2023-04-25T01:52:37;0.20;;;0.20;;
48401;SDS011;65988;52.422;16.746;2023-04-25T01:55:10;0.20;;;0.20;;
48401;SDS011;65988;52.422;16.746;2023-04-25T01:57:49;0.30;;;0.30;;
48401;SDS011;65988;52.422;16.746;2023-04-25T02:00:46;0.20;;;0.20;;
48401;SDS011;65988;52.422;16.746;2023-04-25T02:03:17;0.20;;;0.20;;
48401;SDS011;65988;52.422;16.746;2023-04-25T02:05:42;0.20;;;0.20;;
48401;SDS011;65988;52.422;16.746;2023-04-25T02:08:11;0.20;;;0.20;;
48401;SDS011;65988;52.422;16.746;2023-04-25T02:10:39;0.25;;;0.25;;
48401;SDS011;65988;52.422;16.746;2023-04-25T02:13:16;0.20;;;0.20;;
48401;SDS011;65988;52.422;16.746;2023-04-25T02:15:56;0.28;;;0.28;;
48401;SDS011;65988;52.422;16.746;2023-04-25T02:18:22;0.20;;;0.20;;
48401;SDS011;65988;52.422;16.746;2023-04-25T02:20:51;0.30;;;0.30;;
48401;SDS011;65988;52.422;16.746;2023-04-25T02:23:19;0.20;;;0.20;;
48401;SDS011;65988;52.422;16.746;2023-04-25T02:26:03;0.20;;;0.20;;
48401;SDS011;65988;52.422;16.746;2023-04-25T02:28:55;0.30;;;0.30;;
48401;SDS011;65988;52.422;16.746;2023-04-25T02:31:40;0.30;;;0.30;;
48401;SDS011;65988;52.422;16.746;2023-04-25T02:34:08;0.22;;;0.22;;
48401;SDS011;65988;52.422;16.746;2023-04-25T02:36:39;0.20;;;0.20;;
48401;SDS011;65988;52.422;16.746;2023-04-25T02:39:36;0.20;;;0.20;;
48401;SDS011;65988;52.422;16.746;2023-04-25T02:42:07;0.20;;;0.20;;
48401;SDS011;65988;52.422;16.746;2023-04-25T02:44:32;0.25;;;0.25;;
48401;SDS011;65988;52.422;16.746;2023-04-25T02:47:04;0.20;;;0.20;;
48401;SDS011;65988;52.422;16.746;2023-04-25T02:49:34;0.30;;;0.30;;
48401;SDS011;65988;52.422;16.746;2023-04-25T02:52:09;0.20;;;0.20;;
48401;SDS011;65988;52.422;16.746;2023-04-25T02:54:40;0.20;;;0.20;;
48401;SDS011;65988;52.422;16.746;2023-04-25T02:57:12;0.20;;;0.20;;
48401;SDS011;65988;52.422;16.746;2023-04-25T03:00:05;0.20;;;0.20;;
48401;SDS011;65988;52.422;16.746;2023-04-25T03:02:36;0.20;;;0.20;;
48401;SDS011;65988;52.422;16.746;2023-04-25T03:05:04;0.13;;;0.13;;
48401;SDS011;65988;52.422;16.746;2023-04-25T03:07:31;0.32;;;0.32;;
48401;SDS011;65988;52.422;16.746;2023-04-25T03:10:36;0.20;;;0.20;;
48401;SDS011;65988;52.422;16.746;2023-04-25T03:13:04;0.22;;;0.22;;
48401;SDS011;65988;52.422;16.746;2023-04-25T03:15:36;0.10;;;0.10;;
48401;SDS011;65988;52.422;16.746;2023-04-25T03:18:26;0.20;;;0.20;;
48401;SDS011;65988;52.422;16.746;2023-04-25T03:21:09;0.20;;;0.20;;
48401;SDS011;65988;52.422;16.746;2023-04-25T03:23:47;0.25;;;0.25;;
48401;SDS011;65988;52.422;16.746;2023-04-25T03:26:22;0.20;;;0.20;;
48401;SDS011;65988;52.422;16.746;2023-04-25T03:28:48;0.20;;;0.20;;
48401;SDS011;65988;52.422;16.746;2023-04-25T03:31:28;0.20;;;0.20;;
48401;SDS011;65988;52.422;16.746;2023-04-25T03:33:56;0.20;;;0.20;;
48401;SDS011;65988;52.422;16.746;2023-04-25T03:36:42;0.20;;;0.20;;
48401;SDS011;65988;52.422;16.746;2023-04-25T03:39:15;0.30;;;0.30;;
48401;SDS011;65988;52.422;16.746;2023-04-25T03:47:14;0.20;;;0.20;;
48401;SDS011;65988;52.422;16.746;2023-04-25T03:52:36;0.20;;;0.20;;
48401;SDS011;65988;52.422;16.746;2023-04-25T03:55:07;0.30;;;0.30;;
48401;SDS011;65988;52.422;16.746;2023-04-25T03:57:38;0.17;;;0.17;;
48401;SDS011;65988;52.422;16.746;2023-04-25T04:06:16;0.20;;;0.20;;
48401;SDS011;65988;52.422;16.746;2023-04-25T04:09:06;0.20;;;0.20;;
48401;SDS011;65988;52.422;16.746;2023-04-25T04:11:38;0.20;;;0.20;;
48401;SDS011;65988;52.422;16.746;2023-04-25T04:14:06;0.20;;;0.20;;
48401;SDS011;65988;52.422;16.746;2023-04-25T04:16:43;0.20;;;0.20;;
48401;SDS011;65988;52.422;16.746;2023-04-25T04:19:21;0.20;;;0.20;;
48401;SDS011;65988;52.422;16.746;2023-04-25T04:22:12;0.13;;;0.13;;
48401;SDS011;65988;52.422;16.746;2023-04-25T04:24:55;0.17;;;0.17;;
48401;SDS011;65988;52.422;16.746;2023-04-25T04:27:32;0.30;;;0.30;;
48401;SDS011;65988;52.422;16.746;2023-04-25T04:33:24;0.10;;;0.10;;
48401;SDS011;65988;52.422;16.746;2023-04-25T04:35:59;0.30;;;0.30;;
48401;SDS011;65988;52.422;16.746;2023-04-25T04:38:32;0.30;;;0.30;;
48401;SDS011;65988;52.422;16.746;2023-04-25T04:41:27;0.30;;;0.30;;
48401;SDS011;65988;52.422;16.746;2023-04-25T04:44:07;0.25;;;0.25;;
48401;SDS011;65988;52.422;16.746;2023-04-25T04:47:05;0.20;;;0.20;;
48401;SDS011;65988;52.422;16.746;2023-04-25T04:52:52;0.20;;;0.20;;
48401;SDS011;65988;52.422;16.746;2023-04-25T04:55:47;0.20;;;0.20;;
48401;SDS011;65988;52.422;16.746;2023-04-25T04:58:25;0.28;;;0.28;;
48401;SDS011;65988;52.422;16.746;2023-04-25T05:01:17;0.20;;;0.20;;
48401;SDS011;65988;52.422;16.746;2023-04-25T05:03:50;0.20;;;0.20;;
48401;SDS011;65988;52.422;16.746;2023-04-25T05:09:36;0.22;;;0.22;;
48401;SDS011;65988;52.422;16.746;2023-04-25T05:12:15;0.30;;;0.30;;
48401;SDS011;65988;52.422;16.746;2023-04-25T05:14:40;0.20;;;0.20;;
48401;SDS011;65988;52.422;16.746;2023-04-25T05:17:14;0.20;;;0.20;;
48401;SDS011;65988;52.422;16.746;2023-04-25T05:19:45;0.20;;;0.20;;
48401;SDS011;65988;52.422;16.746;2023-04-25T05:22:13;0.30;;;0.30;;
48401;SDS011;65988;52.422;16.746;2023-04-25T05:24:41;0.30;;;0.30;;
48401;SDS011;65988;52.422;16.746;2023-04-25T05:27:10;0.28;;;0.28;;
48401;SDS011;65988;52.422;16.746;2023-04-25T05:29:38;0.30;;;0.30;;
48401;SDS011;65988;52.422;16.746;2023-04-25T05:32:06;0.40;;;0.40;;
48401;SDS011;65988;52.422;16.746;2023-04-25T05:35:08;0.20;;;0.20;;
48401;SDS011;65988;52.422;16.746;2023-04-25T05:37:33;0.20;;;0.20;;
48401;SDS011;65988;52.422;16.746;2023-04-25T05:40:02;0.20;;;0.20;;
48401;SDS011;65988;52.422;16.746;2023-04-25T05:42:32;0.20;;;0.20;;
48401;SDS011;65988;52.422;16.746;2023-04-25T05:44:57;0.20;;;0.20;;
48401;SDS011;65988;52.422;16.746;2023-04-25T05:47:30;0.20;;;0.20;;
48401;SDS011;65988;52.422;16.746;2023-04-25T05:49:58;0.20;;;0.20;;
48401;SDS011;65988;52.422;16.746;2023-04-25T05:52:24;0.20;;;0.20;;
48401;SDS011;65988;52.422;16.746;2023-04-25T05:54:52;0.20;;;0.20;;
48401;SDS011;65988;52.422;16.746;2023-04-25T05:57:20;0.20;;;0.20;;
48401;SDS011;65988;52.422;16.746;2023-04-25T05:59:53;0.20;;;0.20;;
48401;SDS011;65988;52.422;16.746;2023-04-25T06:02:22;0.30;;;0.30;;
48401;SDS011;65988;52.422;16.746;2023-04-25T06:04:49;0.20;;;0.20;;
48401;SDS011;65988;52.422;16.746;2023-04-25T06:07:28;0.20;;;0.20;;
48401;SDS011;65988;52.422;16.746;2023-04-25T06:09:59;0.20;;;0.20;;
48401;SDS011;65988;52.422;16.746;2023-04-25T06:12:28;0.30;;;0.30;;
48401;SDS011;65988;52.422;16.746;2023-04-25T06:14:53;0.20;;;0.20;;
48401;SDS011;65988;52.422;16.746;2023-04-25T06:17:19;0.20;;;0.20;;
48401;SDS011;65988;52.422;16.746;2023-04-25T06:19:50;0.10;;;0.10;;
48401;SDS011;65988;52.422;16.746;2023-04-25T06:22:19;0.20;;;0.20;;
48401;SDS011;65988;52.422;16.746;2023-04-25T06:24:44;0.20;;;0.20;;
48401;SDS011;65988;52.422;16.746;2023-04-25T06:27:24;0.20;;;0.20;;
48401;SDS011;65988;52.422;16.746;2023-04-25T06:29:57;0.10;;;0.10;;
48401;SDS011;65988;52.422;16.746;2023-04-25T06:32:29;0.20;;;0.20;;
48401;SDS011;65988;52.422;16.746;2023-04-25T06:34:59;0.20;;;0.20;;
48401;SDS011;65988;52.422;16.746;2023-04-25T06:37:25;0.10;;;0.10;;
48401;SDS011;65988;52.422;16.746;2023-04-25T06:39:59;0.20;;;0.20;;
48401;SDS011;65988;52.422;16.746;2023-04-25T06:42:24;0.17;;;0.17;;
48401;SDS011;65988;52.422;16.746;2023-04-25T06:44:57;0.20;;;0.20;;
48401;SDS011;65988;52.422;16.746;2023-04-25T06:47:33;0.10;;;0.10;;
48401;SDS011;65988;52.422;16.746;2023-04-25T06:50:13;0.10;;;0.10;;
48401;SDS011;65988;52.422;16.746;2023-04-25T06:52:38;0.20;;;0.20;;
48401;SDS011;65988;52.422;16.746;2023-04-25T06:55:15;0.10;;;0.10;;
48401;SDS011;65988;52.422;16.746;2023-04-25T06:57:50;0.10;;;0.10;;
48401;SDS011;65988;52.422;16.746;2023-04-25T07:00:23;0.20;;;0.20;;
48401;SDS011;65988;52.422;16.746;2023-04-25T07:12:08;0.10;;;0.10;;
48401;SDS011;65988;52.422;16.746;2023-04-25T07:14:46;0.10;;;0.10;;
48401;SDS011;65988;52.422;16.746;2023-04-25T07:27:08;0.00;;;0.00;;
48401;SDS011;65988;52.422;16.746;2023-04-25T07:33:06;0.10;;;0.10;;
48401;SDS011;65988;52.422;16.746;2023-04-25T07:45:13;0.10;;;0.10;;
48401;SDS011;65988;52.422;16.746;2023-04-25T07:53:59;0.05;;;0.05;;
48401;SDS011;65988;52.422;16.746;2023-04-25T08:18:55;0.00;;;0.00;;
48401;SDS011;65988;52.422;16.746;2023-04-25T08:21:43;0.00;;;0.00;;
48401;SDS011;65988;52.422;16.746;2023-04-25T08:28:10;0.00;;;0.00;;
48401;SDS011;65988;52.422;16.746;2023-04-25T08:30:54;0.00;;;0.00;;
48401;SDS011;65988;52.422;16.746;2023-04-25T08:33:34;0.00;;;0.00;;
48401;SDS011;65988;52.422;16.746;2023-04-25T08:36:16;0.00;;;0.00;;
48401;SDS011;65988;52.422;16.746;2023-04-25T08:38:42;0.00;;;0.00;;
48401;SDS011;65988;52.422;16.746;2023-04-25T08:41:21;0.00;;;0.00;;
48401;SDS011;65988;52.422;16.746;2023-04-25T08:43:50;0.00;;;0.00;;
48401;SDS011;65988;52.422;16.746;2023-04-25T08:46:20;0.00;;;0.00;;
48401;SDS011;65988;52.422;16.746;2023-04-25T08:48:46;0.00;;;0.00;;
48401;SDS011;65988;52.422;16.746;2023-04-25T08:51:17;0.00;;;0.00;;
48401;SDS011;65988;52.422;16.746;2023-04-25T08:53:50;0.00;;;0.00;;
48401;SDS011;65988;52.422;16.746;2023-04-25T08:56:17;0.00;;;0.00;;
48401;SDS011;65988;52.422;16.746;2023-04-25T08:58:43;0.00;;;0.00;;
48401;SDS011;65988;52.422;16.746;2023-04-25T09:01:23;0.00;;;0.00;;
48401;SDS011;65988;52.422;16.746;2023-04-25T09:07:23;0.00;;;0.00;;
48401;SDS011;65988;52.422;16.746;2023-04-25T09:09:55;0.00;;;0.00;;
48401;SDS011;65988;52.422;16.746;2023-04-25T09:12:29;0.00;;;0.00;;
48401;SDS011;65988;52.422;16.746;2023-04-25T09:15:08;0.00;;;0.00;;
48401;SDS011;65988;52.422;16.746;2023-04-25T09:18:04;0.00;;;0.00;;
48401;SDS011;65988;52.422;16.746;2023-04-25T09:20:50;0.00;;;0.00;;
48401;SDS011;65988;52.422;16.746;2023-04-25T09:23:22;0.00;;;0.00;;
48401;SDS011;65988;52.422;16.746;2023-04-25T09:26:04;0.00;;;0.00;;
48401;SDS011;65988;52.422;16.746;2023-04-25T09:29:07;0.00;;;0.00;;
48401;SDS011;65988;52.422;16.746;2023-04-25T09:32:09;0.00;;;0.00;;
48401;SDS011;65988;52.422;16.746;2023-04-25T09:38:23;0.00;;;0.00;;
48401;SDS011;65988;52.422;16.746;2023-04-25T09:44:45;0.00;;;0.00;;
48401;SDS011;65988;52.422;16.746;2023-04-25T09:47:13;0.00;;;0.00;;
48401;SDS011;65988;52.422;16.746;2023-04-25T09:49:48;0.00;;;0.00;;
48401;SDS011;65988;52.422;16.746;2023-04-25T09:52:24;0.00;;;0.00;;
48401;SDS011;65988;52.422;16.746;2023-04-25T09:55:00;0.00;;;0.00;;
48401;SDS011;65988;52.422;16.746;2023-04-25T09:57:29;0.00;;;0.00;;
48401;SDS011;65988;52.422;16.746;2023-04-25T09:59:57;0.00;;;0.00;;
48401;SDS011;65988;52.422;16.746;2023-04-25T10:02:32;0.00;;;0.00;;
48401;SDS011;65988;52.422;16.746;2023-04-25T10:05:05;0.00;;;0.00;;
48401;SDS011;65988;52.422;16.746;2023-04-25T10:07:44;0.00;;;0.00;;
48401;SDS011;65988;52.422;16.746;2023-04-25T10:10:10;0.00;;;0.00;;
48401;SDS011;65988;52.422;16.746;2023-04-25T10:12:55;0.00;;;0.00;;
48401;SDS011;65988;52.422;16.746;2023-04-25T10:15:24;0.00;;;0.00;;
48401;SDS011;65988;52.422;16.746;2023-04-25T10:17:58;0.00;;;0.00;;
48401;SDS011;65988;52.422;16.746;2023-04-25T10:20:50;0.00;;;0.00;;
48401;SDS011;65988;52.422;16.746;2023-04-25T10:23:16;0.00;;;0.00;;
48401;SDS011;65988;52.422;16.746;2023-04-25T10:25:44;0.00;;;0.00;;
48401;SDS011;65988;52.422;16.746;2023-04-25T10:28:12;0.00;;;0.00;;
48401;SDS011;65988;52.422;16.746;2023-04-25T10:30:59;0.00;;;0.00;;
48401;SDS011;65988;52.422;16.746;2023-04-25T10:33:32;0.00;;;0.00;;
48401;SDS011;65988;52.422;16.746;2023-04-25T10:36:17;0.00;;;0.00;;
48401;SDS011;65988;52.422;16.746;2023-04-25T10:38:44;0.00;;;0.00;;
48401;SDS011;65988;52.422;16.746;2023-04-25T10:41:11;0.00;;;0.00;;
48401;SDS011;65988;52.422;16.746;2023-04-25T10:43:40;0.00;;;0.00;;
48401;SDS011;65988;52.422;16.746;2023-04-25T10:46:34;0.00;;;0.00;;
48401;SDS011;65988;52.422;16.746;2023-04-25T10:49:05;0.00;;;0.00;;
48401;SDS011;65988;52.422;16.746;2023-04-25T10:51:58;0.00;;;0.00;;
48401;SDS011;65988;52.422;16.746;2023-04-25T10:54:51;0.00;;;0.00;;
48401;SDS011;65988;52.422;16.746;2023-04-25T11:03:43;0.00;;;0.00;;
48401;SDS011;65988;52.422;16.746;2023-04-25T11:10:24;0.00;;;0.00;;
48401;SDS011;65988;52.422;16.746;2023-04-25T11:13:17;0.00;;;0.00;;
48401;SDS011;65988;52.422;16.746;2023-04-25T11:16:07;0.00;;;0.00;;
48401;SDS011;65988;52.422;16.746;2023-04-25T11:18:33;0.00;;;0.00;;
48401;SDS011;65988;52.422;16.746;2023-04-25T11:21:03;0.00;;;0.00;;
48401;SDS011;65988;52.422;16.746;2023-04-25T11:23:30;0.00;;;0.00;;
48401;SDS011;65988;52.422;16.746;2023-04-25T11:26:02;0.00;;;0.00;;
48401;SDS011;65988;52.422;16.746;2023-04-25T11:28:37;0.00;;;0.00;;
48401;SDS011;65988;52.422;16.746;2023-04-25T11:31:03;0.00;;;0.00;;
48401;SDS011;65988;52.422;16.746;2023-04-25T11:33:37;0.00;;;0.00;;
48401;SDS011;65988;52.422;16.746;2023-04-25T11:36:11;0.00;;;0.00;;
48401;SDS011;65988;52.422;16.746;2023-04-25T11:38:52;0.00;;;0.00;;
48401;SDS011;65988;52.422;16.746;2023-04-25T11:41:28;0.00;;;0.00;;
48401;SDS011;65988;52.422;16.746;2023-04-25T11:44:01;0.00;;;0.00;;
48401;SDS011;65988;52.422;16.746;2023-04-25T11:46:34;0.05;;;0.05;;
48401;SDS011;65988;52.422;16.746;2023-04-25T11:49:00;0.00;;;0.00;;
48401;SDS011;65988;52.422;16.746;2023-04-25T11:51:25;0.00;;;0.00;;
48401;SDS011;65988;52.422;16.746;2023-04-25T11:53:51;0.00;;;0.00;;
48401;SDS011;65988;52.422;16.746;2023-04-25T11:56:36;0.00;;;0.00;;
48401;SDS011;65988;52.422;16.746;2023-04-25T11:59:13;0.00;;;0.00;;
48401;SDS011;65988;52.422;16.746;2023-04-25T12:01:48;0.05;;;0.05;;
48401;SDS011;65988;52.422;16.746;2023-04-25T12:04:19;0.00;;;0.00;;
48401;SDS011;65988;52.422;16.746;2023-04-25T12:09:51;0.00;;;0.00;;
48401;SDS011;65988;52.422;16.746;2023-04-25T12:12:27;0.00;;;0.00;;
48401;SDS011;65988;52.422;16.746;2023-04-25T12:15:12;0.00;;;0.00;;
48401;SDS011;65988;52.422;16.746;2023-04-25T12:17:52;0.00;;;0.00;;
48401;SDS011;65988;52.422;16.746;2023-04-25T12:27:14;0.00;;;0.00;;
48401;SDS011;65988;52.422;16.746;2023-04-25T12:29:59;0.00;;;0.00;;
48401;SDS011;65988;52.422;16.746;2023-04-25T12:32:38;0.00;;;0.00;;
48401;SDS011;65988;52.422;16.746;2023-04-25T12:35:06;0.00;;;0.00;;
48401;SDS011;65988;52.422;16.746;2023-04-25T12:37:55;0.00;;;0.00;;
48401;SDS011;65988;52.422;16.746;2023-04-25T12:49:50;0.00;;;0.00;;
48401;SDS011;65988;52.422;16.746;2023-04-25T12:52:53;0.00;;;0.00;;
48401;SDS011;65988;52.422;16.746;2023-04-25T12:55:28;0.00;;;0.00;;
48401;SDS011;65988;52.422;16.746;2023-04-25T12:58:22;0.00;;;0.00;;
48401;SDS011;65988;52.422;16.746;2023-04-25T13:17:54;0.00;;;0.00;;
48401;SDS011;65988;52.422;16.746;2023-04-25T13:24:20;0.10;;;0.10;;
48401;SDS011;65988;52.422;16.746;2023-04-25T13:33:17;0.10;;;0.10;;
48401;SDS011;65988;52.422;16.746;2023-04-25T13:36:28;0.00;;;0.00;;
48401;SDS011;65988;52.422;16.746;2023-04-25T13:39:34;0.00;;;0.00;;
48401;SDS011;65988;52.422;16.746;2023-04-25T13:52:15;0.00;;;0.00;;
48401;SDS011;65988;52.422;16.746;2023-04-25T13:58:31;0.00;;;0.00;;
48401;SDS011;65988;52.422;16.746;2023-04-25T14:23:05;0.00;;;0.00;;
48401;SDS011;65988;52.422;16.746;2023-04-25T14:25:38;0.00;;;0.00;;
48401;SDS011;65988;52.422;16.746;2023-04-25T14:28:24;0.00;;;0.00;;
48401;SDS011;65988;52.422;16.746;2023-04-25T14:34:45;0.00;;;0.00;;
48401;SDS011;65988;52.422;16.746;2023-04-25T14:37:58;0.00;;;0.00;;
48401;SDS011;65988;52.422;16.746;2023-04-25T14:40:47;0.00;;;0.00;;
48401;SDS011;65988;52.422;16.746;2023-04-25T14:43:33;0.00;;;0.00;;
48401;SDS011;65988;52.422;16.746;2023-04-25T14:46:01;0.00;;;0.00;;
48401;SDS011;65988;52.422;16.746;2023-04-25T14:48:59;0.00;;;0.00;;
48401;SDS011;65988;52.422;16.746;2023-04-25T14:51:30;0.00;;;0.00;;
48401;SDS011;65988;52.422;16.746;2023-04-25T14:57:18;0.00;;;0.00;;
48401;SDS011;65988;52.422;16.746;2023-04-25T15:00:12;0.00;;;0.00;;
48401;SDS011;65988;52.422;16.746;2023-04-25T15:03:20;0.00;;;0.00;;
48401;SDS011;65988;52.422;16.746;2023-04-25T15:09:26;0.00;;;0.00;;
48401;SDS011;65988;52.422;16.746;2023-04-25T15:12:37;0.00;;;0.00;;
48401;SDS011;65988;52.422;16.746;2023-04-25T15:15:41;0.00;;;0.00;;
48401;SDS011;65988;52.422;16.746;2023-04-25T15:18:19;0.00;;;0.00;;
48401;SDS011;65988;52.422;16.746;2023-04-25T15:20:54;0.00;;;0.00;;
48401;SDS011;65988;52.422;16.746;2023-04-25T15:29:37;0.03;;;0.03;;
48401;SDS011;65988;52.422;16.746;2023-04-25T15:39:11;0.10;;;0.10;;
48401;SDS011;65988;52.422;16.746;2023-04-25T15:41:40;0.10;;;0.10;;
48401;SDS011;65988;52.422;16.746;2023-04-25T15:44:09;0.10;;;0.10;;
48401;SDS011;65988;52.422;16.746;2023-04-25T15:46:37;0.10;;;0.10;;
48401;SDS011;65988;52.422;16.746;2023-04-25T15:49:06;0.13;;;0.13;;
48401;SDS011;65988;52.422;16.746;2023-04-25T15:51:34;0.10;;;0.10;;
48401;SDS011;65988;52.422;16.746;2023-04-25T15:54:12;0.10;;;0.10;;
48401;SDS011;65988;52.422;16.746;2023-04-25T15:56:42;0.10;;;0.10;;
48401;SDS011;65988;52.422;16.746;2023-04-25T15:59:11;0.10;;;0.10;;
48401;SDS011;65988;52.422;16.746;2023-04-25T16:01:42;0.10;;;0.10;;
48401;SDS011;65988;52.422;16.746;2023-04-25T16:04:13;0.10;;;0.10;;
48401;SDS011;65988;52.422;16.746;2023-04-25T16:06:49;0.10;;;0.10;;
48401;SDS011;65988;52.422;16.746;2023-04-25T16:12:34;0.10;;;0.10;;
48401;SDS011;65988;52.422;16.746;2023-04-25T16:17:51;0.10;;;0.10;;
48401;SDS011;65988;52.422;16.746;2023-04-25T16:20:43;0.10;;;0.10;;
48401;SDS011;65988;52.422;16.746;2023-04-25T16:23:11;0.10;;;0.10;;
48401;SDS011;65988;52.422;16.746;2023-04-25T16:25:42;0.10;;;0.10;;
48401;SDS011;65988;52.422;16.746;2023-04-25T16:28:20;0.10;;;0.10;;
48401;SDS011;65988;52.422;16.746;2023-04-25T16:30:50;0.10;;;0.10;;
48401;SDS011;65988;52.422;16.746;2023-04-25T16:33:23;0.10;;;0.10;;
48401;SDS011;65988;52.422;16.746;2023-04-25T16:36:06;0.10;;;0.10;;
48401;SDS011;65988;52.422;16.746;2023-04-25T16:38:33;0.10;;;0.10;;
48401;SDS011;65988;52.422;16.746;2023-04-25T16:40:58;0.10;;;0.10;;
48401;SDS011;65988;52.422;16.746;2023-04-25T16:46:15;0.10;;;0.10;;
48401;SDS011;65988;52.422;16.746;2023-04-25T16:48:45;0.10;;;0.10;;
48401;SDS011;65988;52.422;16.746;2023-04-25T16:51:19;0.20;;;0.20;;
48401;SDS011;65988;52.422;16.746;2023-04-25T16:53:45;0.20;;;0.20;;
48401;SDS011;65988;52.422;16.746;2023-04-25T16:56:21;0.17;;;0.17;;
48401;SDS011;65988;52.422;16.746;2023-04-25T16:58:52;0.20;;;0.20;;
48401;SDS011;65988;52.422;16.746;2023-04-25T17:06:33;0.20;;;0.20;;
48401;SDS011;65988;52.422;16.746;2023-04-25T17:09:11;0.20;;;0.20;;
48401;SDS011;65988;52.422;16.746;2023-04-25T17:12:04;0.20;;;0.20;;
48401;SDS011;65988;52.422;16.746;2023-04-25T17:14:41;0.25;;;0.25;;
48401;SDS011;65988;52.422;16.746;2023-04-25T17:17:32;0.20;;;0.20;;
48401;SDS011;65988;52.422;16.746;2023-04-25T17:20:31;0.20;;;0.20;;
48401;SDS011;65988;52.422;16.746;2023-04-25T17:23:18;0.20;;;0.20;;
48401;SDS011;65988;52.422;16.746;2023-04-25T17:26:23;0.22;;;0.22;;
48401;SDS011;65988;52.422;16.746;2023-04-25T17:29:25;0.20;;;0.20;;
48401;SDS011;65988;52.422;16.746;2023-04-25T17:32:20;0.20;;;0.20;;
48401;SDS011;65988;52.422;16.746;2023-04-25T17:37:20;0.20;;;0.20;;
48401;SDS011;65988;52.422;16.746;2023-04-25T17:39:54;0.30;;;0.30;;
48401;SDS011;65988;52.422;16.746;2023-04-25T17:42:25;0.20;;;0.20;;
48401;SDS011;65988;52.422;16.746;2023-04-25T17:45:14;0.20;;;0.20;;
48401;SDS011;65988;52.422;16.746;2023-04-25T17:48:02;0.20;;;0.20;;
48401;SDS011;65988;52.422;16.746;2023-04-25T18:03:17;0.30;;;0.30;;
48401;SDS011;65988;52.422;16.746;2023-04-25T18:05:56;0.30;;;0.30;;
48401;SDS011;65988;52.422;16.746;2023-04-25T18:09:07;0.35;;;0.35;;
48401;SDS011;65988;52.422;16.746;2023-04-25T18:12:18;0.28;;;0.28;;
48401;SDS011;65988;52.422;16.746;2023-04-25T18:14:50;0.20;;;0.20;;
48401;SDS011;65988;52.422;16.746;2023-04-25T18:17:34;0.20;;;0.20;;
48401;SDS011;65988;52.422;16.746;2023-04-25T18:20:16;0.30;;;0.30;;
48401;SDS011;65988;52.422;16.746;2023-04-25T18:22:48;0.20;;;0.20;;
48401;SDS011;65988;52.422;16.746;2023-04-25T18:25:23;0.20;;;0.20;;
48401;SDS011;65988;52.422;16.746;2023-04-25T18:28:12;0.28;;;0.28;;
48401;SDS011;65988;52.422;16.746;2023-04-25T18:31:05;0.20;;;0.20;;
48401;SDS011;65988;52.422;16.746;2023-04-25T18:36:51;0.20;;;0.20;;
48401;SDS011;65988;52.422;16.746;2023-04-25T18:39:20;0.20;;;0.20;;
48401;SDS011;65988;52.422;16.746;2023-04-25T18:41:49;0.20;;;0.20;;
48401;SDS011;65988;52.422;16.746;2023-04-25T18:44:25;0.40;;;0.40;;
48401;SDS011;65988;52.422;16.746;2023-04-25T18:47:14;0.28;;;0.28;;
48401;SDS011;65988;52.422;16.746;2023-04-25T18:49:44;0.20;;;0.20;;
48401;SDS011;65988;52.422;16.746;2023-04-25T18:52:24;0.20;;;0.20;;
48401;SDS011;65988;52.422;16.746;2023-04-25T18:54:55;0.20;;;0.20;;
48401;SDS011;65988;52.422;16.746;2023-04-25T18:57:32;0.20;;;0.20;;
48401;SDS011;65988;52.422;16.746;2023-04-25T19:00:18;0.20;;;0.20;;
48401;SDS011;65988;52.422;16.746;2023-04-25T19:02:49;0.20;;;0.20;;
48401;SDS011;65988;52.422;16.746;2023-04-25T19:06:00;0.10;;;0.10;;
48401;SDS011;65988;52.422;16.746;2023-04-25T19:08:30;0.20;;;0.20;;
48401;SDS011;65988;52.422;16.746;2023-04-25T19:11:21;0.30;;;0.30;;
48401;SDS011;65988;52.422;16.746;2023-04-25T19:17:15;0.20;;;0.20;;
48401;SDS011;65988;52.422;16.746;2023-04-25T19:19:52;0.15;;;0.15;;
48401;SDS011;65988;52.422;16.746;2023-04-25T19:22:47;0.28;;;0.28;;
48401;SDS011;65988;52.422;16.746;2023-04-25T19:25:25;0.28;;;0.28;;
48401;SDS011;65988;52.422;16.746;2023-04-25T19:28:03;0.28;;;0.28;;
48401;SDS011;65988;52.422;16.746;2023-04-25T19:30:49;0.20;;;0.20;;
48401;SDS011;65988;52.422;16.746;2023-04-25T19:33:29;0.15;;;0.15;;
48401;SDS011;65988;52.422;16.746;2023-04-25T19:36:01;0.40;;;0.40;;
48401;SDS011;65988;52.422;16.746;2023-04-25T19:38:31;0.20;;;0.20;;
48401;SDS011;65988;52.422;16.746;2023-04-25T19:41:07;0.20;;;0.20;;
48401;SDS011;65988;52.422;16.746;2023-04-25T19:43:38;0.20;;;0.20;;
48401;SDS011;65988;52.422;16.746;2023-04-25T19:46:23;0.22;;;0.22;;
48401;SDS011;65988;52.422;16.746;2023-04-25T19:49:02;0.30;;;0.30;;
48401;SDS011;65988;52.422;16.746;2023-04-25T19:51:33;0.20;;;0.20;;